createdAt,value
2023-05-19T00:00:25.657Z,100.00
2023-05-19T00:02:56.415Z,100.00
2023-05-19T00:05:24.917Z,100.00
2023-05-19T00:07:53.394Z,100.00
2023-05-19T00:10:21.870Z,100.00
2023-05-19T00:12:52.392Z,100.00
2023-05-19T00:15:21.971Z,100.00
2023-05-19T00:17:49.627Z,100.00
2023-05-19T00:20:18.952Z,100.00
2023-05-19T00:22:47.267Z,100.00
2023-05-19T00:25:15.074Z,100.00
2023-05-19T00:27:43.199Z,100.00
2023-05-19T00:30:11.539Z,100.00
2023-05-19T00:32:39.867Z,100.00
2023-05-19T00:35:08.215Z,100.00
2023-05-19T00:37:37.191Z,100.00
2023-05-19T00:40:06.660Z,100.00
2023-05-19T00:42:34.739Z,100.00
2023-05-19T00:45:02.516Z,100.00
2023-05-19T00:47:30.476Z,100.00
2023-05-19T00:49:58.439Z,100.00
2023-05-19T00:52:26.518Z,100.00
2023-05-19T00:54:56.793Z,100.00
2023-05-19T00:57:26.276Z,100.00
2023-05-19T00:59:54.161Z,100.00
2023-05-19T01:02:22.498Z,100.00
2023-05-19T01:04:52.067Z,100.00
2023-05-19T01:07:21.307Z,100.00
2023-05-19T01:09:49.734Z,100.00
2023-05-19T01:12:19.119Z,100.00
2023-05-19T01:14:46.896Z,100.00
2023-05-19T01:17:17.926Z,100.00
2023-05-19T01:19:54.162Z,100.00
2023-05-19T01:22:33.428Z,100.00
2023-05-19T01:25:19.990Z,100.00
2023-05-19T01:28:09.048Z,100.00
2023-05-19T01:30:40.945Z,100.00
2023-05-19T01:33:11.164Z,100.00
2023-05-19T01:35:41.108Z,100.00
2023-05-19T01:38:10.074Z,100.00
2023-05-19T01:40:38.735Z,100.00
2023-05-19T01:43:07.559Z,100.00
2023-05-19T01:45:35.527Z,100.00
2023-05-19T01:48:10.002Z,100.00
2023-05-19T01:50:40.755Z,100.00
2023-05-19T01:53:08.833Z,100.00
2023-05-19T01:55:37.117Z,100.00
2023-05-19T01:58:10.802Z,100.00
2023-05-19T02:00:46.858Z,100.00
2023-05-19T02:03:31.628Z,100.00
2023-05-19T02:06:04.393Z,100.00
2023-05-19T02:08:40.529Z,100.00
2023-05-19T02:11:14.156Z,100.00
2023-05-19T02:13:45.026Z,100.00
2023-05-19T02:16:14.835Z,100.00
2023-05-19T02:18:46.218Z,100.00
2023-05-19T02:21:14.164Z,100.00
2023-05-19T02:23:42.165Z,100.00
2023-05-19T02:26:10.082Z,100.00
2023-05-19T02:28:37.829Z,100.00
2023-05-19T02:31:08.861Z,100.00
2023-05-19T02:33:37.499Z,100.00
2023-05-19T02:36:07.444Z,100.00
2023-05-19T02:38:36.426Z,100.00
2023-05-19T02:41:04.571Z,100.00
2023-05-19T02:43:32.650Z,100.00
2023-05-19T02:46:01.060Z,100.00
2023-05-19T02:48:28.921Z,100.00
2023-05-19T02:50:56.943Z,100.00
2023-05-19T02:53:27.041Z,100.00
2023-05-19T02:55:55.150Z,100.00
2023-05-19T02:58:23.223Z,100.00
2023-05-19T03:00:51.776Z,100.00
2023-05-19T03:03:20.232Z,100.00
2023-05-19T03:05:48.623Z,100.00
2023-05-19T03:08:16.725Z,100.00
2023-05-19T03:10:46.777Z,100.00
2023-05-19T03:13:14.872Z,100.00
2023-05-19T03:15:42.917Z,100.00
2023-05-19T03:18:12.053Z,100.00
2023-05-19T03:20:42.579Z,100.00
2023-05-19T03:23:10.602Z,100.00
2023-05-19T03:25:38.822Z,100.00
2023-05-19T03:28:08.423Z,100.00
2023-05-19T03:30:36.497Z,100.00
2023-05-19T03:33:15.390Z,100.00
2023-05-19T03:35:44.402Z,100.00
2023-05-19T03:38:12.507Z,100.00
2023-05-19T03:40:44.234Z,100.00
2023-05-19T03:43:16.398Z,100.00
2023-05-19T03:45:50.228Z,100.00
2023-05-19T03:48:36.790Z,100.00
2023-05-19T03:51:35.050Z,100.00
2023-05-19T03:54:19.937Z,100.00
2023-05-19T03:56:48.164Z,100.00
2023-05-19T03:59:17.686Z,100.00
2023-05-19T04:01:46.516Z,100.00
2023-05-19T04:04:15.019Z,100.00
2023-05-19T04:06:43.350Z,100.00
2023-05-19T04:09:14.056Z,100.00
2023-05-19T04:11:42.154Z,100.00
2023-05-19T04:14:10.420Z,100.00
2023-05-19T04:16:39.904Z,100.00
2023-05-19T04:19:08.696Z,100.00
2023-05-19T04:21:37.183Z,100.00
2023-05-19T04:24:06.725Z,100.00
2023-05-19T04:26:36.258Z,100.00
2023-05-19T04:29:05.122Z,100.00
2023-05-19T04:31:34.576Z,100.00
2023-05-19T04:34:05.935Z,100.00
2023-05-19T04:36:34.135Z,100.00
2023-05-19T04:39:08.246Z,100.00
2023-05-19T04:41:40.616Z,100.00
2023-05-19T04:44:10.281Z,100.00
2023-05-19T04:46:39.155Z,100.00
2023-05-19T04:49:09.032Z,100.00
2023-05-19T04:51:37.108Z,100.00
2023-05-19T04:54:05.405Z,100.00
2023-05-19T04:56:34.534Z,100.00
2023-05-19T04:59:02.932Z,100.00
2023-05-19T05:01:33.175Z,100.00
2023-05-19T05:04:03.399Z,100.00
2023-05-19T05:06:33.621Z,100.00
2023-05-19T05:09:03.784Z,100.00
2023-05-19T05:11:35.195Z,100.00
2023-05-19T05:14:04.139Z,100.00
2023-05-19T05:16:33.333Z,100.00
2023-05-19T05:19:02.586Z,100.00
2023-05-19T05:21:31.868Z,100.00
2023-05-19T05:24:02.498Z,100.00
2023-05-19T05:26:34.647Z,100.00
2023-05-19T05:29:02.502Z,100.00
2023-05-19T05:31:31.576Z,100.00
2023-05-19T05:34:00.229Z,100.00
2023-05-19T05:36:32.294Z,100.00
2023-05-19T05:39:04.117Z,100.00
2023-05-19T05:41:35.627Z,100.00
2023-05-19T05:44:10.007Z,100.00
2023-05-19T05:46:40.691Z,100.00
2023-05-19T05:49:08.886Z,100.00
2023-05-19T05:51:37.325Z,100.00
2023-05-19T05:54:07.795Z,100.00
2023-05-19T05:56:39.467Z,100.00
2023-05-19T05:59:11.996Z,100.00
2023-05-19T06:01:40.826Z,100.00
2023-05-19T06:04:10.397Z,100.00
2023-05-19T06:06:39.189Z,100.00
2023-05-19T06:09:08.844Z,100.00
2023-05-19T06:11:37.461Z,100.00
2023-05-19T06:14:06.033Z,100.00
2023-05-19T06:16:49.283Z,100.00
2023-05-19T06:19:20.289Z,100.00
2023-05-19T06:21:49.108Z,100.00
2023-05-19T06:24:18.479Z,100.00
2023-05-19T06:26:46.757Z,100.00
2023-05-19T06:29:16.439Z,100.00
2023-05-19T06:31:44.565Z,96.72
2023-05-19T06:34:17.888Z,89.19
2023-05-19T06:36:47.961Z,89.26
2023-05-19T06:39:18.001Z,86.65
2023-05-19T06:41:46.828Z,90.83
2023-05-19T06:44:28.050Z,90.90
2023-05-19T06:46:55.919Z,87.97
2023-05-19T06:49:24.662Z,82.43
2023-05-19T06:51:52.890Z,82.29
2023-05-19T06:54:23.326Z,81.08
2023-05-19T06:56:51.149Z,77.83
2023-05-19T06:59:21.946Z,80.50
2023-05-19T07:01:50.738Z,78.92
2023-05-19T07:04:18.841Z,74.61
2023-05-19T07:06:46.904Z,72.24
2023-05-19T07:09:14.821Z,71.34
2023-05-19T07:11:47.125Z,72.56
2023-05-19T07:14:15.297Z,70.87
2023-05-19T07:16:43.595Z,65.16
2023-05-19T07:19:11.900Z,63.10
2023-05-19T07:21:39.702Z,62.25
2023-05-19T07:24:07.687Z,62.65
2023-05-19T07:26:35.762Z,61.55
2023-05-19T07:29:04.968Z,61.86
2023-05-19T07:31:32.745Z,65.70
2023-05-19T07:34:00.750Z,62.59
2023-05-19T07:36:28.681Z,62.54
2023-05-19T07:38:56.478Z,61.10
2023-05-19T07:41:24.530Z,59.01
2023-05-19T07:43:52.516Z,54.43
2023-05-19T07:46:22.309Z,52.57
2023-05-19T07:48:50.489Z,52.81
2023-05-19T07:51:19.377Z,53.07
2023-05-19T07:53:48.526Z,55.88
2023-05-19T07:56:17.047Z,54.72
2023-05-19T07:58:44.960Z,52.49
2023-05-19T08:01:12.869Z,50.88
2023-05-19T08:03:42.218Z,47.43
2023-05-19T08:06:10.028Z,51.07
2023-05-19T08:08:37.825Z,52.79
2023-05-19T08:11:06.592Z,49.43
2023-05-19T08:13:34.785Z,46.42
2023-05-19T08:16:03.009Z,48.22
2023-05-19T08:18:31.767Z,48.00
2023-05-19T08:21:01.420Z,52.95
2023-05-19T08:23:29.800Z,48.22
2023-05-19T08:25:57.773Z,45.10
2023-05-19T08:28:26.409Z,42.71
2023-05-19T08:30:54.562Z,41.26
2023-05-19T08:33:22.933Z,42.88
2023-05-19T08:35:51.235Z,41.70
2023-05-19T08:38:20.936Z,41.01
2023-05-19T08:40:49.226Z,42.69
2023-05-19T08:43:17.269Z,39.38
2023-05-19T08:45:46.583Z,39.49
2023-05-19T08:48:15.439Z,40.07
2023-05-19T08:50:49.199Z,40.91
2023-05-19T08:53:33.267Z,42.17
2023-05-19T08:56:11.032Z,43.25
2023-05-19T08:58:40.328Z,45.17
2023-05-19T09:01:08.873Z,44.20
2023-05-19T09:03:38.536Z,43.33
2023-05-19T09:06:10.809Z,42.89
2023-05-19T09:08:39.072Z,43.03
2023-05-19T09:11:09.336Z,41.45
2023-05-19T09:13:39.392Z,42.37
2023-05-19T09:16:08.581Z,42.55
2023-05-19T09:18:40.090Z,40.25
2023-05-19T09:21:10.316Z,37.31
2023-05-19T09:23:38.428Z,37.68
2023-05-19T09:26:08.015Z,37.73
2023-05-19T09:28:38.393Z,39.33
2023-05-19T09:31:07.016Z,39.18
2023-05-19T09:33:36.205Z,38.79
2023-05-19T09:36:06.234Z,38.92
2023-05-19T09:38:34.309Z,38.60
2023-05-19T09:41:02.920Z,40.62
2023-05-19T09:43:31.829Z,38.77
2023-05-19T09:46:07.512Z,39.25
2023-05-19T09:48:36.835Z,39.11
2023-05-19T09:51:06.613Z,38.46
2023-05-19T09:53:35.785Z,38.99
2023-05-19T09:56:04.700Z,39.76
2023-05-19T09:58:34.833Z,40.14
2023-05-19T10:01:02.905Z,37.97
2023-05-19T10:03:33.219Z,38.92
2023-05-19T10:06:02.405Z,36.63
2023-05-19T10:08:32.036Z,37.27
2023-05-19T10:11:00.373Z,37.67
2023-05-19T10:13:30.685Z,36.58
2023-05-19T10:16:00.410Z,35.39
2023-05-19T10:18:29.439Z,34.61
2023-05-19T10:21:00.007Z,35.25
2023-05-19T10:23:27.870Z,36.60
2023-05-19T10:25:57.186Z,35.56
2023-05-19T10:28:28.047Z,36.04
2023-05-19T10:30:57.631Z,36.60
2023-05-19T10:33:33.352Z,37.88
2023-05-19T10:36:11.920Z,39.32
2023-05-19T10:38:43.727Z,39.31
2023-05-19T10:41:14.222Z,39.14
2023-05-19T10:43:50.407Z,39.52
2023-05-19T10:46:18.470Z,40.38
2023-05-19T10:48:47.280Z,41.66
2023-05-19T10:51:17.342Z,43.07
2023-05-19T10:53:47.121Z,41.16
2023-05-19T10:56:30.428Z,39.89
2023-05-19T10:58:58.524Z,40.25
2023-05-19T11:01:31.453Z,39.88
2023-05-19T11:04:05.830Z,39.90
2023-05-19T11:06:37.736Z,38.49
2023-05-19T11:09:12.799Z,39.97
2023-05-19T11:11:47.865Z,38.93
2023-05-19T11:14:16.630Z,38.66
2023-05-19T11:16:47.792Z,39.75
2023-05-19T11:19:20.231Z,39.16
2023-05-19T11:21:50.489Z,37.03
2023-05-19T11:24:37.563Z,34.15
2023-05-19T11:27:20.576Z,31.67
2023-05-19T11:29:49.203Z,26.86
2023-05-19T11:32:17.247Z,31.60
2023-05-19T11:34:45.795Z,35.63
2023-05-19T11:37:15.162Z,32.86
2023-05-19T11:39:43.959Z,27.57
2023-05-19T11:42:12.039Z,25.04
2023-05-19T11:44:41.319Z,26.52
2023-05-19T11:47:09.043Z,31.34
2023-05-19T11:49:36.900Z,31.15
2023-05-19T11:52:05.953Z,32.80
2023-05-19T11:54:36.655Z,30.13
2023-05-19T11:57:05.236Z,29.43
2023-05-19T11:59:35.590Z,27.16
2023-05-19T12:02:04.901Z,28.64
2023-05-19T12:04:32.753Z,32.33
2023-05-19T12:07:03.815Z,34.93
2023-05-19T12:09:31.720Z,29.88
2023-05-19T12:12:01.895Z,29.29
2023-05-19T12:14:31.354Z,31.83
2023-05-19T12:16:59.434Z,33.21
2023-05-19T12:19:27.922Z,33.18
2023-05-19T12:21:55.993Z,33.39
2023-05-19T12:24:23.884Z,31.71
2023-05-19T12:26:51.929Z,32.90
2023-05-19T12:29:20.933Z,33.04
2023-05-19T12:31:49.541Z,29.28
2023-05-19T12:34:17.218Z,32.07
2023-05-19T12:36:44.993Z,30.50
2023-05-19T12:39:13.959Z,35.13
2023-05-19T12:41:41.833Z,37.29
2023-05-19T12:44:15.638Z,37.10
2023-05-19T12:46:44.681Z,36.28
2023-05-19T12:49:12.594Z,34.41
2023-05-19T12:51:40.604Z,36.36
2023-05-19T12:54:09.063Z,36.51
2023-05-19T12:56:36.707Z,36.03
2023-05-19T12:59:04.496Z,36.47
2023-05-19T13:01:32.437Z,38.00
2023-05-19T13:04:03.355Z,37.35
2023-05-19T13:06:33.649Z,36.42
2023-05-19T13:09:01.441Z,34.66
2023-05-19T13:11:30.230Z,31.02
2023-05-19T13:13:58.712Z,30.57
2023-05-19T13:16:26.653Z,30.94
2023-05-19T13:18:54.962Z,29.79
2023-05-19T13:21:24.915Z,29.53
2023-05-19T13:23:53.414Z,30.65
2023-05-19T13:26:21.349Z,33.27
2023-05-19T13:28:49.227Z,34.64
2023-05-19T13:31:16.834Z,35.48
2023-05-19T13:33:44.758Z,36.04
2023-05-19T13:36:12.679Z,34.02
2023-05-19T13:38:42.072Z,33.03
2023-05-19T13:41:10.870Z,32.49
2023-05-19T13:43:38.941Z,34.94
2023-05-19T13:46:06.879Z,36.65
2023-05-19T13:48:34.603Z,38.01
2023-05-19T13:51:02.441Z,38.94
2023-05-19T13:53:32.738Z,38.47
2023-05-19T13:56:02.308Z,37.85
2023-05-19T13:58:30.457Z,37.58
2023-05-19T14:00:59.993Z,38.19
2023-05-19T14:03:28.133Z,37.90
2023-05-19T14:05:56.044Z,37.95
2023-05-19T14:08:23.926Z,37.98
2023-05-19T14:10:52.196Z,37.66
2023-05-19T14:13:32.313Z,32.92
2023-05-19T14:16:00.943Z,30.93
2023-05-19T14:18:28.649Z,30.92
2023-05-19T14:20:56.500Z,28.89
2023-05-19T14:23:24.212Z,25.99
2023-05-19T14:25:51.844Z,25.76
2023-05-19T14:28:20.942Z,22.96
2023-05-19T14:30:49.648Z,22.09
2023-05-19T14:33:17.577Z,22.01
2023-05-19T14:35:45.378Z,23.20
2023-05-19T14:38:13.775Z,23.34
2023-05-19T14:40:42.286Z,23.44
2023-05-19T14:43:09.991Z,26.05
2023-05-19T14:45:39.672Z,30.34
2023-05-19T14:48:07.328Z,31.85
2023-05-19T14:50:35.233Z,32.12
2023-05-19T14:53:02.870Z,31.41
2023-05-19T14:55:30.688Z,31.47
2023-05-19T14:57:58.145Z,31.99
2023-05-19T15:00:26.196Z,32.92
2023-05-19T15:02:56.352Z,32.16
2023-05-19T15:05:24.559Z,33.47
2023-05-19T15:07:52.312Z,34.14
2023-05-19T15:10:20.862Z,34.28
2023-05-19T15:12:48.704Z,35.08
2023-05-19T15:15:17.228Z,34.58
2023-05-19T15:17:45.948Z,34.01
2023-05-19T15:20:15.165Z,33.43
2023-05-19T15:22:42.905Z,33.13
2023-05-19T15:25:11.133Z,33.28
2023-05-19T15:27:39.115Z,35.32
2023-05-19T15:30:07.222Z,36.11
2023-05-19T15:32:35.079Z,36.06
2023-05-19T15:35:02.898Z,36.62
2023-05-19T15:37:33.608Z,38.21
2023-05-19T15:40:01.466Z,38.95
2023-05-19T15:42:29.904Z,39.55
2023-05-19T15:44:57.845Z,38.92
2023-05-19T15:47:26.056Z,40.31
2023-05-19T15:49:53.791Z,41.04
2023-05-19T15:52:22.294Z,40.28
2023-05-19T15:54:51.479Z,39.72
2023-05-19T15:57:19.110Z,39.71
2023-05-19T15:59:46.751Z,38.50
2023-05-19T16:02:15.635Z,38.15
2023-05-19T16:04:43.659Z,37.07
2023-05-19T16:07:11.489Z,38.10
2023-05-19T16:09:39.045Z,38.77
2023-05-19T16:12:08.815Z,39.17
2023-05-19T16:14:37.918Z,38.18
2023-05-19T16:17:11.363Z,39.10
2023-05-19T16:19:39.108Z,40.36
2023-05-19T16:22:06.886Z,41.41
2023-05-19T16:24:34.735Z,42.91
2023-05-19T16:27:02.473Z,42.55
2023-05-19T16:29:31.547Z,42.13
2023-05-19T16:31:59.205Z,42.28
2023-05-19T16:34:28.643Z,42.25
2023-05-19T16:36:57.522Z,41.59
2023-05-19T16:39:25.339Z,41.10
2023-05-19T16:41:53.302Z,41.23
2023-05-19T16:44:21.603Z,42.06
2023-05-19T16:46:50.648Z,42.41
2023-05-19T16:49:18.219Z,42.95
2023-05-19T16:51:47.571Z,43.06
2023-05-19T16:54:16.649Z,43.06
2023-05-19T16:56:44.898Z,43.17
2023-05-19T16:59:12.909Z,43.29
2023-05-19T17:01:40.805Z,42.28
2023-05-19T17:04:10.000Z,42.55
2023-05-19T17:06:38.121Z,42.76
2023-05-19T17:09:06.033Z,43.11
2023-05-19T17:11:33.874Z,43.23
2023-05-19T17:14:01.984Z,42.12
2023-05-19T17:16:30.056Z,41.45
2023-05-19T17:18:58.193Z,42.17
2023-05-19T17:21:27.864Z,41.25
2023-05-19T17:23:55.933Z,41.67
2023-05-19T17:26:23.989Z,42.34
2023-05-19T17:28:52.018Z,43.94
2023-05-19T17:31:22.846Z,44.64
2023-05-19T17:33:50.807Z,43.46
2023-05-19T17:36:18.656Z,44.65
2023-05-19T17:38:47.914Z,44.89
2023-05-19T17:41:16.020Z,45.14
2023-05-19T17:43:43.646Z,45.09
2023-05-19T17:46:11.804Z,45.64
2023-05-19T17:48:39.895Z,46.55
2023-05-19T17:51:08.081Z,46.62
2023-05-19T17:53:36.594Z,47.36
2023-05-19T17:56:08.959Z,47.91
2023-05-19T17:58:36.973Z,47.84
2023-05-19T18:01:04.801Z,47.70
2023-05-19T18:03:33.556Z,47.12
2023-05-19T18:06:02.484Z,47.20
2023-05-19T18:08:31.867Z,45.11
2023-05-19T18:11:00.496Z,44.68
2023-05-19T18:13:31.055Z,45.02
2023-05-19T18:15:59.672Z,43.76
2023-05-19T18:18:27.525Z,44.14
2023-05-19T18:20:55.326Z,44.49
2023-05-19T18:23:23.113Z,44.11
2023-05-19T18:25:53.467Z,44.41
2023-05-19T18:28:21.776Z,45.28
2023-05-19T18:30:59.102Z,45.66
2023-05-19T18:33:28.465Z,46.29
2023-05-19T18:35:57.410Z,46.88
2023-05-19T18:38:25.368Z,46.84
2023-05-19T18:40:58.282Z,47.42
2023-05-19T18:43:26.030Z,47.51
2023-05-19T18:45:58.810Z,48.05
2023-05-19T18:48:27.137Z,48.88
2023-05-19T18:50:55.071Z,48.70
2023-05-19T18:53:23.425Z,48.90
2023-05-19T18:55:51.429Z,49.27
2023-05-19T18:58:19.721Z,49.77
2023-05-19T19:00:47.461Z,49.97
2023-05-19T19:03:17.144Z,49.19
2023-05-19T19:05:45.294Z,49.23
2023-05-19T19:08:13.239Z,49.19
2023-05-19T19:10:41.201Z,48.92
2023-05-19T19:13:09.042Z,48.68
2023-05-19T19:15:37.618Z,48.77
2023-05-19T19:18:06.184Z,49.63
2023-05-19T19:20:37.119Z,49.57
2023-05-19T19:23:06.443Z,49.69
2023-05-19T19:25:34.437Z,50.19
2023-05-19T19:28:02.431Z,50.36
2023-05-19T19:30:30.512Z,50.88
2023-05-19T19:32:59.530Z,51.53
2023-05-19T19:35:27.357Z,52.29
2023-05-19T19:37:57.001Z,52.21
2023-05-19T19:40:25.153Z,53.29
2023-05-19T19:42:53.053Z,53.35
2023-05-19T19:45:21.916Z,53.32
2023-05-19T19:47:49.595Z,53.40
2023-05-19T19:50:17.573Z,53.71
2023-05-19T19:52:45.632Z,54.26
2023-05-19T19:55:14.929Z,54.51
2023-05-19T19:57:45.001Z,54.18
2023-05-19T20:00:13.353Z,54.25
2023-05-19T20:02:59.574Z,53.82
2023-05-19T20:05:29.551Z,55.03
2023-05-19T20:07:59.502Z,55.01
2023-05-19T20:10:28.708Z,55.17
2023-05-19T20:13:00.056Z,56.21
2023-05-19T20:15:28.444Z,56.69
2023-05-19T20:17:56.543Z,57.04
2023-05-19T20:20:24.689Z,57.34
2023-05-19T20:22:52.187Z,57.65
2023-05-19T20:25:19.966Z,58.24
2023-05-19T20:27:48.947Z,58.73
2023-05-19T20:30:19.602Z,58.63
2023-05-19T20:32:47.427Z,59.18
2023-05-19T20:35:15.243Z,59.23
2023-05-19T20:37:42.825Z,60.13
2023-05-19T20:40:11.414Z,60.52
2023-05-19T20:42:39.763Z,60.92
2023-05-19T20:45:09.794Z,61.05
2023-05-19T20:47:37.622Z,62.14
2023-05-19T20:50:05.755Z,62.35
2023-05-19T20:52:33.623Z,62.93
2023-05-19T20:55:01.219Z,63.60
2023-05-19T20:57:29.017Z,64.28
2023-05-19T20:59:56.872Z,64.67
2023-05-19T21:02:26.250Z,65.38
2023-05-19T21:04:54.070Z,65.98
2023-05-19T21:07:22.307Z,67.12
2023-05-19T21:09:51.425Z,67.48
2023-05-19T21:12:23.965Z,68.51
2023-05-19T21:14:51.969Z,68.80
2023-05-19T21:17:21.029Z,68.78
2023-05-19T21:19:52.962Z,69.24
2023-05-19T21:22:21.364Z,69.73
2023-05-19T21:24:49.721Z,70.16
2023-05-19T21:27:17.866Z,71.07
2023-05-19T21:29:46.206Z,71.57
2023-05-19T21:32:14.360Z,72.30
2023-05-19T21:34:43.607Z,72.88
2023-05-19T21:37:13.752Z,73.47
2023-05-19T21:39:42.427Z,74.37
2023-05-19T21:42:10.764Z,74.46
2023-05-19T21:44:39.386Z,74.92
2023-05-19T21:47:07.232Z,75.41
2023-05-19T21:49:35.426Z,75.85
2023-05-19T21:52:03.454Z,75.89
2023-05-19T21:54:33.193Z,77.43
2023-05-19T21:57:02.484Z,78.31
2023-05-19T21:59:30.787Z,78.60
2023-05-19T22:01:58.922Z,80.10
2023-05-19T22:04:27.615Z,80.26
2023-05-19T22:06:55.588Z,80.96
2023-05-19T22:09:23.782Z,81.86
2023-05-19T22:11:52.970Z,82.81
2023-05-19T22:14:21.501Z,84.15
2023-05-19T22:16:50.217Z,84.91
2023-05-19T22:19:18.814Z,85.67
2023-05-19T22:21:46.546Z,86.34
2023-05-19T22:24:14.319Z,87.51
2023-05-19T22:26:43.423Z,88.73
2023-05-19T22:29:15.307Z,89.31
2023-05-19T22:31:43.253Z,90.41
2023-05-19T22:34:12.785Z,90.76
2023-05-19T22:36:41.689Z,91.44
2023-05-19T22:39:09.797Z,93.74
2023-05-19T22:41:38.112Z,94.22
2023-05-19T22:44:06.767Z,94.91
2023-05-19T22:46:36.106Z,95.96
2023-05-19T22:49:04.177Z,97.17
2023-05-19T22:51:33.504Z,98.18
2023-05-19T22:54:01.705Z,98.23
2023-05-19T22:56:30.120Z,98.38
2023-05-19T22:58:58.235Z,99.28
2023-05-19T23:01:26.492Z,99.62
2023-05-19T23:03:55.648Z,100.00
2023-05-19T23:06:23.987Z,100.00
2023-05-19T23:08:59.147Z,100.00
2023-05-19T23:11:27.395Z,100.00
2023-05-19T23:13:55.397Z,100.00
2023-05-19T23:16:23.829Z,100.00
2023-05-19T23:18:51.914Z,100.00
2023-05-19T23:21:21.571Z,100.00
2023-05-19T23:23:49.518Z,100.00
2023-05-19T23:26:17.429Z,100.00
2023-05-19T23:28:45.653Z,100.00
2023-05-19T23:31:13.858Z,100.00
2023-05-19T23:33:41.932Z,100.00
2023-05-19T23:36:11.032Z,100.00
2023-05-19T23:38:40.673Z,100.00
2023-05-19T23:41:08.718Z,100.00
2023-05-19T23:43:37.854Z,100.00
2023-05-19T23:46:06.594Z,100.00
2023-05-19T23:48:35.694Z,100.00
2023-05-19T23:51:03.673Z,100.00
2023-05-19T23:53:31.808Z,100.00
2023-05-19T23:56:01.895Z,100.00
2023-05-19T23:58:29.981Z,100.00
